Time;durP1;ratioP1;P1;durP2;ratioP2;P2;SDS_P1;SDS_P2;PMS_P1;PMS_P2;Temp;Humidity;BMP_temperature;BMP_pressure;BME280_temperature;BME280_humidity;BME280_pressure;Samples;Min_cycle;Max_cycle;Signal;HPM_P1;HPM_P2
2023/06/09 00:01:01;;;;;;;6.00;5.50;;;20.90;99.90;;;;;;5000794;28;20466;-85
2023/06/09 00:03:27;;;;;;;6.47;5.60;;;20.90;99.90;;;;;;5002468;28;20511;-85
2023/06/09 00:05:54;;;;;;;10.43;6.17;;;20.80;99.90;;;;;;5000745;28;20454;-85
2023/06/09 00:08:21;;;;;;;6.20;5.60;;;20.70;99.90;;;;;;4999211;28;20541;-83
2023/06/09 00:10:48;;;;;;;6.80;4.90;;;20.70;99.90;;;;;;5001807;28;20477;-82
2023/06/09 00:13:17;;;;;;;6.20;5.70;;;20.80;99.90;;;;;;4999469;28;20489;-84
2023/06/09 00:15:44;;;;;;;5.40;5.00;;;20.70;99.90;;;;;;4999223;28;20457;-83
2023/06/09 00:18:16;;;;;;;6.67;5.77;;;20.70;99.90;;;;;;4999317;28;20516;-83
2023/06/09 00:20:43;;;;;;;8.77;5.90;;;20.60;99.90;;;;;;4999564;28;20540;-85
2023/06/09 00:23:09;;;;;;;8.30;6.10;;;20.50;99.90;;;;;;4999155;28;20556;-83
2023/06/09 00:25:37;;;;;;;6.13;5.57;;;20.50;99.90;;;;;;5002095;28;20455;-83
2023/06/09 00:28:04;;;;;;;6.73;5.97;;;20.50;99.90;;;;;;5005650;28;20506;-83
2023/06/09 00:30:31;;;;;;;7.10;6.00;;;20.40;99.90;;;;;;5017773;28;20520;-83
2023/06/09 00:32:58;;;;;;;6.20;5.60;;;;;;;;;;5010785;28;20448;-83
2023/06/09 00:35:26;;;;;;;7.97;5.60;;;20.10;1.00;;;;;;5004646;28;20474;-84
2023/06/09 00:37:53;;;;;;;7.00;5.60;;;;;;;;;;5004553;28;20481;-84
2023/06/09 00:40:21;;;;;;;6.00;5.20;;;20.40;99.90;;;;;;5006203;28;21015;-84
2023/06/09 00:42:48;;;;;;;5.93;5.43;;;20.40;99.90;;;;;;5013752;28;20432;-83
2023/06/09 00:45:15;;;;;;;6.80;6.00;;;20.80;1.00;;;;;;5009092;28;20838;-83
2023/06/09 00:47:42;;;;;;;6.60;6.00;;;20.30;99.90;;;;;;5005785;28;20460;-84
2023/06/09 00:50:11;;;;;;;10.60;8.20;;;20.20;99.90;;;;;;5004770;28;20475;-84
2023/06/09 00:52:39;;;;;;;5.67;5.17;;;20.20;99.90;;;;;;5010313;28;20564;-84
2023/06/09 00:55:07;;;;;;;6.33;5.70;;;20.20;99.90;;;;;;5004236;28;20983;-84
2023/06/09 00:57:34;;;;;;;5.47;4.97;;;20.20;99.90;;;;;;5000024;28;20484;-84
2023/06/09 01:00:06;;;;;;;5.63;5.17;;;;;;;;;;5000434;28;20476;-84
2023/06/09 01:02:33;;;;;;;11.50;6.00;;;20.00;99.90;;;;;;5000400;28;20437;-84
2023/06/09 01:05:00;;;;;;;7.50;5.67;;;20.00;99.90;;;;;;5000897;28;20459;-84
2023/06/09 01:07:33;;;;;;;7.07;5.83;;;19.90;99.90;;;;;;5001378;28;20453;-84
2023/06/09 01:10:09;;;;;;;5.97;5.33;;;19.80;99.90;;;;;;5001127;28;20507;-84
2023/06/09 01:12:46;;;;;;;7.10;5.37;;;19.80;99.90;;;;;;5001761;28;20461;-84
2023/06/09 01:15:18;;;;;;;8.50;5.50;;;19.80;99.90;;;;;;5002452;28;20527;-84
2023/06/09 01:17:49;;;;;;;6.83;5.83;;;20.00;1.00;;;;;;5001200;28;20564;-84
2023/06/09 01:20:22;;;;;;;6.37;5.50;;;19.90;1.00;;;;;;5001545;28;20479;-84
2023/06/09 01:22:54;;;;;;;8.60;6.57;;;19.70;99.90;;;;;;5002085;28;20435;-84
2023/06/09 01:25:35;;;;;;;8.87;4.80;;;19.70;99.90;;;;;;5001293;28;20819;-84
2023/06/09 01:28:06;;;;;;;5.30;4.80;;;19.60;99.90;;;;;;5001589;28;20439;-84
2023/06/09 01:30:36;;;;;;;7.20;5.03;;;19.60;99.90;;;;;;5000804;28;20475;-84
2023/06/09 01:33:07;;;;;;;8.60;5.80;;;19.60;99.90;;;;;;5001997;28;20452;-84
2023/06/09 01:35:34;;;;;;;5.60;4.87;;;19.60;99.90;;;;;;5001309;28;20441;-84
2023/06/09 01:38:02;;;;;;;6.03;5.20;;;19.60;1.00;;;;;;5014535;28;20545;-84
2023/06/09 01:40:31;;;;;;;6.43;5.83;;;19.60;99.90;;;;;;5014486;28;20519;-85
2023/06/09 01:42:59;;;;;;;5.53;5.00;;;19.60;99.90;;;;;;5016240;28;20441;-84
2023/06/09 01:45:26;;;;;;;7.80;5.87;;;19.90;1.00;;;;;;5003777;28;20541;-84
2023/06/09 01:47:53;;;;;;;8.40;5.27;;;19.60;99.90;;;;;;5001839;28;20507;-84
2023/06/09 01:50:29;;;;;;;6.43;5.30;;;19.60;99.90;;;;;;5010906;28;20475;-84
2023/06/09 01:53:01;;;;;;;7.70;6.00;;;19.50;99.90;;;;;;4998031;28;20429;-84
2023/06/09 01:55:35;;;;;;;6.67;6.07;;;19.40;99.90;;;;;;4998121;28;20441;-84
2023/06/09 01:58:09;;;;;;;6.70;5.43;;;19.40;99.90;;;;;;4999196;28;20487;-83
2023/06/09 02:00:37;;;;;;;11.13;5.73;;;19.40;99.90;;;;;;4998658;28;21018;-84
2023/06/09 02:03:07;;;;;;;8.40;6.93;;;19.30;99.90;;;;;;5003380;28;20524;-84
2023/06/09 02:05:36;;;;;;;7.50;5.93;;;19.60;1.00;;;;;;5010191;28;20414;-84
2023/06/09 02:08:04;;;;;;;8.80;5.70;;;19.30;99.90;;;;;;5013404;28;20517;-84
2023/06/09 02:10:32;;;;;;;10.33;6.67;;;19.20;99.90;;;;;;5008166;28;21027;-83
2023/06/09 02:13:12;;;;;;;7.23;6.50;;;19.30;99.90;;;;;;5004989;28;20943;-83
2023/06/09 02:15:38;;;;;;;6.97;6.27;;;19.30;99.90;;;;;;5003688;28;20861;-83
2023/06/09 02:18:05;;;;;;;7.40;6.53;;;19.30;1.00;;;;;;5002214;28;20484;-84
2023/06/09 02:20:32;;;;;;;10.67;6.80;;;19.10;99.90;;;;;;5002096;28;20523;-84
2023/06/09 02:22:59;;;;;;;7.83;7.10;;;19.10;99.90;;;;;;5002112;28;20488;-84
2023/06/09 02:25:28;;;;;;;10.40;7.57;;;19.00;99.90;;;;;;5002201;28;20825;-84
2023/06/09 02:27:56;;;;;;;7.73;7.03;;;19.00;99.90;;;;;;5003054;28;20453;-83
2023/06/09 02:30:23;;;;;;;10.23;7.40;;;;;;;;;;5003038;28;20472;-84
2023/06/09 02:32:50;;;;;;;9.70;8.47;;;18.90;99.90;;;;;;5001932;28;20475;-84
2023/06/09 02:35:17;;;;;;;9.87;7.70;;;18.90;99.90;;;;;;5005411;28;20445;-83
2023/06/09 02:37:44;;;;;;;8.93;8.00;;;18.80;99.90;;;;;;5015313;28;20489;-83
2023/06/09 02:40:12;;;;;;;10.37;8.10;;;18.70;99.90;;;;;;5015832;28;20503;-83
2023/06/09 02:42:39;;;;;;;9.87;8.63;;;18.80;99.90;;;;;;5016115;28;20437;-83
2023/06/09 02:45:09;;;;;;;11.70;7.70;;;18.80;99.90;;;;;;5015919;28;20544;-83
2023/06/09 02:47:36;;;;;;;10.50;7.77;;;19.70;1.00;;;;;;5014820;28;20505;-83
2023/06/09 02:50:03;;;;;;;8.37;7.20;;;18.60;99.90;;;;;;5007814;28;21005;-84
2023/06/09 02:52:31;;;;;;;9.47;8.47;;;18.60;99.90;;;;;;5000385;28;20448;-84
2023/06/09 02:54:58;;;;;;;20.40;8.17;;;18.70;99.90;;;;;;4997240;28;20456;-83
2023/06/09 02:57:25;;;;;;;10.23;8.20;;;18.70;99.90;;;;;;4998365;28;21002;-83
2023/06/09 02:59:52;;;;;;;9.73;8.03;;;18.60;99.90;;;;;;5010390;28;20461;-83
2023/06/09 03:02:20;;;;;;;11.13;7.67;;;18.60;99.90;;;;;;4999615;28;20451;-83
2023/06/09 03:04:48;;;;;;;9.17;7.97;;;18.60;99.90;;;;;;4998104;28;20449;-83
2023/06/09 03:07:14;;;;;;;8.10;7.37;;;18.60;99.90;;;;;;5003650;28;20452;-83
2023/06/09 03:09:41;;;;;;;9.13;7.80;;;18.50;1.00;;;;;;5013325;28;20479;-83
2023/06/09 03:12:10;;;;;;;9.17;8.20;;;18.60;99.90;;;;;;5013312;28;20517;-84
2023/06/09 03:14:38;;;;;;;13.53;9.03;;;18.50;99.90;;;;;;5013830;28;20509;-83
2023/06/09 03:17:05;;;;;;;7.70;6.97;;;18.50;99.90;;;;;;5008930;28;20449;-83
2023/06/09 03:19:33;;;;;;;7.87;7.13;;;18.70;1.00;;;;;;5005932;28;20453;-83
2023/06/09 03:22:03;;;;;;;8.70;7.80;;;18.50;99.90;;;;;;5001357;28;20445;-83
2023/06/09 03:24:30;;;;;;;8.40;7.40;;;18.50;1.00;;;;;;5003268;28;20440;-83
2023/06/09 03:26:57;;;;;;;11.10;7.83;;;18.60;99.90;;;;;;5001087;28;20456;-84
2023/06/09 03:29:24;;;;;;;8.20;7.13;;;18.50;99.90;;;;;;5000822;28;20453;-85
2023/06/09 03:31:51;;;;;;;9.23;8.30;;;;;;;;;;5000373;28;20465;-85
2023/06/09 03:34:18;;;;;;;10.30;7.97;;;18.60;1.00;;;;;;4999440;28;20456;-84
2023/06/09 03:36:46;;;;;;;10.93;7.37;;;18.50;99.90;;;;;;5003847;28;20459;-83
2023/06/09 03:39:13;;;;;;;11.70;7.93;;;;;;;;;;5017910;28;20476;-83
2023/06/09 03:41:40;;;;;;;9.53;7.87;;;18.30;99.90;;;;;;5017529;28;20572;-83
2023/06/09 03:44:07;;;;;;;9.60;7.90;;;;;;;;;;5015599;28;20448;-84
2023/06/09 03:46:34;;;;;;;10.67;7.03;;;18.30;99.90;;;;;;5015184;28;20512;-82
2023/06/09 03:49:01;;;;;;;8.67;7.63;;;18.40;99.90;;;;;;5015362;28;20448;-83
2023/06/09 03:51:27;;;;;;;10.77;8.20;;;18.50;99.90;;;;;;5015441;28;20572;-83
2023/06/09 03:53:56;;;;;;;10.17;8.60;;;18.50;99.90;;;;;;5010095;28;20457;-83
2023/06/09 03:56:22;;;;;;;11.17;9.87;;;18.40;99.90;;;;;;4996627;28;20465;-83
2023/06/09 03:58:49;;;;;;;18.17;10.63;;;18.50;99.90;;;;;;4999763;28;20490;-84
2023/06/09 04:01:17;;;;;;;10.60;7.43;;;18.50;99.90;;;;;;5003753;28;20465;-83
2023/06/09 04:03:44;;;;;;;9.83;7.33;;;;;;;;;;5003612;28;20457;-84
2023/06/09 04:06:11;;;;;;;8.00;7.30;;;18.30;99.90;;;;;;5004007;28;20480;-84
2023/06/09 04:08:38;;;;;;;8.40;6.50;;;18.70;1.00;;;;;;5006051;28;20880;-84
2023/06/09 04:11:06;;;;;;;8.43;7.60;;;18.30;99.90;;;;;;5007982;28;20496;-84
2023/06/09 04:13:33;;;;;;;8.90;8.10;;;18.40;99.90;;;;;;5013615;28;20455;-83
2023/06/09 04:16:00;;;;;;;8.23;7.43;;;18.00;1.00;;;;;;5020345;28;20452;-84
2023/06/09 04:18:27;;;;;;;13.20;7.30;;;18.40;99.90;;;;;;5021397;28;20465;-83
2023/06/09 04:20:53;;;;;;;10.30;9.23;;;18.30;99.90;;;;;;5010073;28;20515;-83
2023/06/09 04:23:20;;;;;;;8.70;7.90;;;18.40;99.90;;;;;;5005846;28;20445;-83
2023/06/09 04:25:47;;;;;;;8.10;7.30;;;18.30;99.90;;;;;;5005313;28;20539;-83
2023/06/09 04:28:17;;;;;;;10.93;8.37;;;18.20;99.90;;;;;;5009263;28;20496;-83
2023/06/09 04:30:44;;;;;;;10.40;7.63;;;18.30;99.90;;;;;;5009181;28;20472;-83
2023/06/09 04:33:12;;;;;;;11.17;8.23;;;18.30;99.90;;;;;;5010820;28;20519;-84
2023/06/09 04:35:41;;;;;;;9.67;7.37;;;18.30;99.90;;;;;;5008029;28;20459;-85
2023/06/09 04:38:08;;;;;;;9.40;8.40;;;18.50;99.90;;;;;;5005164;28;20487;-85
2023/06/09 04:40:37;;;;;;;8.50;7.23;;;18.30;1.00;;;;;;5017088;23;20492;-86
2023/06/09 04:43:07;;;;;;;8.13;7.33;;;18.70;99.90;;;;;;5005869;28;20460;-86
2023/06/09 04:45:35;;;;;;;11.30;9.03;;;18.50;1.00;;;;;;5004536;28;20507;-87
2023/06/09 04:48:02;;;;;;;11.20;9.77;;;18.70;99.90;;;;;;5001230;28;20440;-87
2023/06/09 04:50:32;;;;;;;13.77;7.87;;;18.80;99.90;;;;;;5001112;28;20826;-87
2023/06/09 04:52:59;;;;;;;10.77;8.00;;;19.30;1.00;;;;;;5001426;28;20491;-86
2023/06/09 04:55:26;;;;;;;15.63;7.50;;;18.80;99.90;;;;;;5001985;28;20848;-87
2023/06/09 04:57:55;;;;;;;16.43;10.10;;;18.70;99.90;;;;;;5002380;28;20547;-88
2023/06/09 05:00:22;;;;;;;12.00;8.80;;;18.90;99.90;;;;;;5006702;28;21010;-87
2023/06/09 05:02:51;;;;;;;10.80;7.33;;;19.00;99.90;;;;;;5013099;28;20473;-86
2023/06/09 05:05:18;;;;;;;10.30;6.90;;;18.90;1.00;;;;;;5017584;28;20450;-86
2023/06/09 05:07:44;;;;;;;8.70;6.77;;;18.90;99.90;;;;;;5017482;28;20477;-87
2023/06/09 05:10:11;;;;;;;11.60;9.03;;;18.90;99.90;;;;;;5017214;28;20464;-86
2023/06/09 05:12:39;;;;;;;8.17;7.03;;;18.90;99.90;;;;;;5015275;28;20896;-86
2023/06/09 05:15:07;;;;;;;9.07;7.50;;;18.80;99.90;;;;;;5008024;28;20441;-87
2023/06/09 05:17:36;;;;;;;8.57;6.77;;;18.80;99.90;;;;;;5004749;28;20971;-86
2023/06/09 05:20:06;;;;;;;6.87;6.27;;;18.70;99.90;;;;;;5006865;28;20912;-86
2023/06/09 05:22:33;;;;;;;7.20;6.23;;;18.80;1.00;;;;;;5005077;28;20460;-86
2023/06/09 05:25:00;;;;;;;11.50;7.03;;;19.10;99.90;;;;;;5005941;28;20959;-86
2023/06/09 05:27:27;;;;;;;6.80;6.00;;;19.30;1.00;;;;;;5003098;28;20446;-87
2023/06/09 05:29:55;;;;;;;6.70;5.90;;;19.40;1.00;;;;;;5002118;28;20475;-87
2023/06/09 05:32:24;;;;;;;7.63;5.87;;;19.30;99.90;;;;;;5000567;28;20445;-87
2023/06/09 05:34:52;;;;;;;4.70;4.30;;;19.40;99.90;;;;;;5001541;28;20449;-86
2023/06/09 05:37:20;;;;;;;5.40;4.90;;;19.60;99.90;;;;;;5001166;28;20468;-86
2023/06/09 05:39:47;;;;;;;10.50;5.10;;;19.50;1.00;;;;;;5000071;28;20451;-86
2023/06/09 05:42:16;;;;;;;7.47;5.33;;;19.80;99.90;;;;;;5000499;28;20440;-86
2023/06/09 05:44:42;;;;;;;8.90;5.00;;;19.80;99.90;;;;;;5001120;28;20429;-86
2023/06/09 05:47:10;;;;;;;8.03;4.70;;;19.60;1.00;;;;;;5002519;28;20529;-86
2023/06/09 05:49:37;;;;;;;6.23;4.87;;;19.90;99.90;;;;;;5006189;28;20484;-87
2023/06/09 05:52:04;;;;;;;7.10;4.70;;;19.60;1.00;;;;;;5019230;28;20473;-87
2023/06/09 05:54:33;;;;;;;6.00;3.80;;;20.50;1.00;;;;;;5020476;28;20433;-86
2023/06/09 05:57:03;;;;;;;4.37;4.07;;;20.20;99.90;;;;;;5019847;28;20472;-86
2023/06/09 05:59:32;;;;;;;4.83;4.20;;;20.50;1.00;;;;;;5020057;28;20441;-88
2023/06/09 06:02:00;;;;;;;10.40;6.50;;;20.30;99.90;;;;;;5020631;28;20460;-86
2023/06/09 06:04:28;;;;;;;9.67;4.43;;;20.30;99.90;;;;;;5020468;28;20452;-86
2023/06/09 06:06:55;;;;;;;7.50;4.57;;;20.00;1.00;;;;;;5020633;28;20448;-88
2023/06/09 06:09:24;;;;;;;8.37;4.40;;;20.80;1.00;;;;;;5020595;28;20511;-87
2023/06/09 06:11:52;;;;;;;7.27;4.30;;;20.10;1.00;;;;;;5019706;28;20839;-86
2023/06/09 06:14:19;;;;;;;12.70;4.67;;;20.50;1.00;;;;;;5016361;28;20447;-86
2023/06/09 06:16:47;;;;;;;9.30;4.07;;;;;;;;;;5010968;28;20973;-86
2023/06/09 06:19:14;;;;;;;9.77;4.73;;;20.50;99.90;;;;;;5006031;28;20444;-87
2023/06/09 06:21:42;;;;;;;9.03;4.70;;;20.60;1.00;;;;;;5013701;28;20458;-88
2023/06/09 06:24:09;;;;;;;12.63;5.90;;;20.50;99.90;;;;;;5011665;28;20480;-87
2023/06/09 06:26:36;;;;;;;4.30;3.60;;;20.60;99.90;;;;;;5003098;28;20448;-87
2023/06/09 06:29:06;;;;;;;5.57;3.43;;;;;;;;;;5002893;28;20535;-87
2023/06/09 06:31:35;;;;;;;7.67;3.30;;;;;;;;;;5003459;28;20473;-88
2023/06/09 06:34:03;;;;;;;5.93;3.80;;;;;;;;;;5010721;28;20896;-86
2023/06/09 06:36:31;;;;;;;7.47;4.17;;;;;;;;;;5003512;28;20486;-86
2023/06/09 06:38:59;;;;;;;5.23;4.00;;;;;;;;;;5002984;28;20479;-87
2023/06/09 06:41:37;;;;;;;6.20;5.00;;;;;;;;;;5000689;28;20508;-86
2023/06/09 06:44:46;;;;;;;5.43;4.07;;;20.80;99.90;;;;;;5002250;28;20445;-86
2023/06/09 06:47:38;;;;;;;4.87;4.33;;;20.80;99.90;;;;;;4996180;28;20455;-87
2023/06/09 06:50:19;;;;;;;8.37;3.80;;;;;;;;;;4967957;28;20562;-87
2023/06/09 06:52:48;;;;;;;6.20;4.20;;;;;;;;;;4998719;28;20795;-87
2023/06/09 06:55:16;;;;;;;7.43;3.83;;;;;;;;;;4998269;28;20450;-87
2023/06/09 06:57:43;;;;;;;5.17;3.47;;;;;;;;;;4998018;28;20530;-87
2023/06/09 07:00:21;;;;;;;4.20;3.80;;;21.10;99.90;;;;;;4997630;28;20892;-87
2023/06/09 07:02:49;;;;;;;4.80;4.03;;;;;;;;;;4997706;28;20503;-87
2023/06/09 07:05:17;;;;;;;4.50;3.50;;;21.30;99.90;;;;;;5010415;28;20436;-87
2023/06/09 07:07:45;;;;;;;4.40;4.00;;;;;;;;;;4997532;28;20443;-87
2023/06/09 07:10:13;;;;;;;7.03;4.00;;;;;;;;;;4997271;28;20481;-87
2023/06/09 07:12:41;;;;;;;4.97;3.57;;;;;;;;;;4996909;28;20544;-87
2023/06/09 07:15:09;;;;;;;4.00;3.57;;;21.50;99.90;;;;;;4999509;28;20460;-87
2023/06/09 07:17:36;;;;;;;7.20;3.90;;;21.60;99.90;;;;;;5018263;28;20455;-87
2023/06/09 07:20:06;;;;;;;4.57;3.97;;;21.30;1.00;;;;;;5016757;28;20532;-87
2023/06/09 07:22:33;;;;;;;6.30;3.40;;;21.70;99.90;;;;;;5001366;28;20530;-87
2023/06/09 07:25:00;;;;;;;7.77;3.93;;;21.90;99.90;;;;;;4999098;28;20460;-87
2023/06/09 07:27:27;;;;;;;7.00;3.83;;;22.10;99.90;;;;;;4998147;28;20514;-87
2023/06/09 07:29:55;;;;;;;5.03;4.43;;;21.90;1.00;;;;;;5001941;28;20497;-87
2023/06/09 07:32:21;;;;;;;6.97;4.13;;;21.80;1.00;;;;;;5019027;28;20447;-87
2023/06/09 07:34:49;;;;;;;5.13;3.90;;;22.20;99.90;;;;;;5009677;28;20434;-87
2023/06/09 07:37:17;;;;;;;4.30;3.60;;;22.30;99.90;;;;;;4998013;28;20456;-87
2023/06/09 07:39:44;;;;;;;6.13;3.33;;;22.90;1.00;;;;;;4997952;28;20460;-87
2023/06/09 07:42:11;;;;;;;5.73;4.10;;;22.80;1.00;;;;;;4998004;28;20479;-87
2023/06/09 07:44:43;;;;;;;6.93;3.70;;;22.30;1.00;;;;;;4998716;28;20484;-87
2023/06/09 07:47:14;;;;;;;5.43;4.27;;;;;;;;;;5006631;28;20437;-87
2023/06/09 07:49:45;;;;;;;6.00;4.03;;;;;;;;;;5012097;28;20481;-87
2023/06/09 07:52:23;;;;;;;10.30;3.93;;;;;;;;;;5014790;28;20488;-87
2023/06/09 07:54:52;;;;;;;4.63;3.40;;;;;;;;;;5016496;28;20429;-86
2023/06/09 07:57:28;;;;;;;4.10;3.20;;;;;;;;;;5018214;28;20871;-88
2023/06/09 08:00:01;;;;;;;9.73;4.53;;;;;;;;;;5012327;28;20458;-87
2023/06/09 08:02:30;;;;;;;5.87;3.80;;;;;;;;;;5003075;28;20490;-88
2023/06/09 08:05:01;;;;;;;7.83;4.67;;;;;;;;;;5001067;28;20495;-87
2023/06/09 08:07:28;;;;;;;4.60;4.00;;;;;;;;;;4998702;28;20818;-86
2023/06/09 08:09:58;;;;;;;7.30;4.47;;;;;;;;;;4998202;28;20563;-86
2023/06/09 08:12:25;;;;;;;6.50;4.20;;;;;;;;;;4999512;28;20487;-86
2023/06/09 08:14:52;;;;;;;6.93;3.60;;;;;;;;;;5002139;28;20463;-86
2023/06/09 08:17:20;;;;;;;5.40;3.97;;;;;;;;;;4999067;28;20552;-87
2023/06/09 08:19:47;;;;;;;6.57;4.57;;;;;;;;;;5002091;28;20448;-87
2023/06/09 08:22:15;;;;;;;4.47;3.87;;;;;;;;;;5013995;28;20464;-87
2023/06/09 08:24:42;;;;;;;4.80;4.03;;;;;;;;;;5002911;28;20484;-86
2023/06/09 08:27:11;;;;;;;7.20;4.37;;;;;;;;;;4999340;28;20522;-87
2023/06/09 08:29:38;;;;;;;4.43;3.90;;;;;;;;;;4998600;28;20488;-87
2023/06/09 08:32:06;;;;;;;7.07;4.80;;;23.60;99.90;;;;;;4997742;28;20905;-86
2023/06/09 08:34:33;;;;;;;7.23;4.63;;;23.90;1.00;;;;;;4997812;28;20449;-86
2023/06/09 08:37:01;;;;;;;6.83;4.50;;;;;;;;;;4997577;28;20544;-87
2023/06/09 08:39:28;;;;;;;6.00;4.13;;;;;;;;;;4998659;28;20453;-87
2023/06/09 08:41:59;;;;;;;6.70;3.60;;;23.80;99.90;;;;;;5001523;28;20468;-87
2023/06/09 08:44:31;;;;;;;5.53;4.10;;;23.80;1.00;;;;;;5001552;28;20444;-87
2023/06/09 08:47:02;;;;;;;4.37;4.07;;;23.70;1.00;;;;;;5004992;28;20457;-87
2023/06/09 08:49:30;;;;;;;4.20;3.70;;;23.80;99.90;;;;;;5002607;28;20473;-86
2023/06/09 08:51:58;;;;;;;7.77;4.33;;;23.80;99.90;;;;;;5018300;28;20484;-86
2023/06/09 08:54:25;;;;;;;10.13;4.33;;;;;;;;;;5020277;28;20494;-85
2023/06/09 08:56:53;;;;;;;7.77;3.73;;;;;;;;;;5021386;28;20447;-86
2023/06/09 08:59:22;;;;;;;5.83;4.27;;;23.80;99.90;;;;;;5020615;28;20436;-87
2023/06/09 09:01:51;;;;;;;14.87;6.93;;;23.80;99.90;;;;;;5006552;28;20472;-85
2023/06/09 09:04:18;;;;;;;7.50;5.37;;;23.90;99.90;;;;;;5003393;28;20479;-86
2023/06/09 09:06:46;;;;;;;5.60;5.00;;;;;;;;;;5002981;28;20456;-86
2023/06/09 09:09:13;;;;;;;7.93;5.47;;;23.90;1.00;;;;;;5017484;28;20467;-86
2023/06/09 09:11:40;;;;;;;9.50;4.70;;;24.40;99.90;;;;;;5021403;28;20472;-87
2023/06/09 09:14:10;;;;;;;7.57;4.73;;;24.40;1.00;;;;;;5021389;28;20548;-87
2023/06/09 09:16:37;;;;;;;8.33;6.40;;;24.30;1.00;;;;;;5011701;28;20447;-86
2023/06/09 09:19:06;;;;;;;14.30;6.80;;;24.30;99.90;;;;;;5005732;28;20448;-87
2023/06/09 09:21:41;;;;;;;5.60;4.93;;;24.30;1.00;;;;;;5005519;28;20460;-87
2023/06/09 09:24:11;;;;;;;5.20;4.47;;;24.10;99.90;;;;;;5003208;28;20452;-87
2023/06/09 09:26:41;;;;;;;5.00;4.50;;;24.50;1.00;;;;;;5002490;28;20481;-87
2023/06/09 09:29:09;;;;;;;10.20;4.27;;;24.50;1.00;;;;;;5001199;28;20479;-87
2023/06/09 09:31:41;;;;;;;6.40;3.97;;;24.30;99.90;;;;;;5001268;28;20483;-86
2023/06/09 09:34:13;;;;;;;11.97;9.37;;;24.30;99.90;;;;;;5000589;28;20461;-87
2023/06/09 09:36:42;;;;;;;9.17;4.70;;;24.30;99.90;;;;;;5001170;28;20464;-87
2023/06/09 09:39:10;;;;;;;4.80;4.40;;;24.00;1.00;;;;;;5001068;28;20452;-87
2023/06/09 09:41:37;;;;;;;5.83;5.23;;;;;;;;;;5001239;28;20552;-86
2023/06/09 09:44:05;;;;;;;6.07;4.60;;;25.00;1.00;;;;;;5002302;28;20537;-86
2023/06/09 09:46:36;;;;;;;6.23;4.93;;;24.60;99.90;;;;;;5001401;28;20803;-87
2023/06/09 09:49:05;;;;;;;9.47;7.87;;;24.80;99.90;;;;;;5000765;28;20795;-87
2023/06/09 09:51:35;;;;;;;7.30;5.30;;;24.90;99.90;;;;;;5002238;28;20476;-87
2023/06/09 09:54:02;;;;;;;5.13;4.67;;;24.70;1.00;;;;;;5014412;28;20531;-88
2023/06/09 09:56:30;;;;;;;11.20;4.87;;;25.10;99.90;;;;;;5012786;28;20456;-87
2023/06/09 09:58:59;;;;;;;6.57;4.90;;;25.20;1.00;;;;;;5018947;28;20464;-86
2023/06/09 10:01:27;;;;;;;16.53;10.07;;;25.30;99.90;;;;;;5020303;28;20466;-88
2023/06/09 10:03:56;;;;;;;6.17;5.67;;;25.30;99.90;;;;;;5019917;28;20453;-88
2023/06/09 10:06:30;;;;;;;4.90;4.50;;;24.90;1.00;;;;;;5019888;28;20445;-87
2023/06/09 10:09:16;;;;;;;7.43;4.83;;;25.40;99.90;;;;;;5019827;28;20448;-88
2023/06/09 10:14:53;;;;;;;9.00;5.30;;;25.50;99.90;;;;;;4963889;28;20471;-87
2023/06/09 10:17:21;;;;;;;5.03;4.63;;;;;;;;;;5016096;28;20435;-88
2023/06/09 10:19:56;;;;;;;5.63;4.63;;;;;;;;;;5016516;28;20436;-88
2023/06/09 10:22:26;;;;;;;9.80;5.33;;;;;;;;;;5010752;28;20538;-87
2023/06/09 10:24:57;;;;;;;5.27;4.77;;;;;;;;;;5007113;28;20440;-86
2023/06/09 10:27:25;;;;;;;5.47;4.97;;;;;;;;;;5010194;28;20413;-87
2023/06/09 10:32:56;;;;;;;4.40;4.10;;;25.60;99.90;;;;;;3188901;26;20463;-87
2023/06/09 10:35:33;;;;;;;9.23;4.50;;;25.70;99.90;;;;;;4956957;29;20438;-86
2023/06/09 10:38:00;;;;;;;5.00;4.60;;;;;;;;;;5008667;28;20451;-86
2023/06/09 10:40:48;;;;;;;10.40;4.90;;;25.70;99.90;;;;;;5010759;28;20504;-87
2023/06/09 10:43:41;;;;;;;5.17;4.67;;;25.80;99.90;;;;;;5007137;28;20409;-86
2023/06/09 11:00:37;;;;;;;5.40;4.10;;;26.10;99.90;;;;;;4807271;29;20488;-89
2023/06/09 11:03:34;;;;;;;8.50;4.60;;;26.10;99.90;;;;;;4837276;29;20448;-90
2023/06/09 11:12:01;;;;;;;7.83;5.03;;;;;;;;;;4985407;28;20500;-89
2023/06/09 11:15:21;;;;;;;6.67;4.63;;;26.40;99.90;;;;;;4985982;28;20453;-90
2023/06/09 11:26:24;;;;;;;6.23;5.63;;;;;;;;;;4987363;28;20873;-90
2023/06/09 11:29:06;;;;;;;5.43;4.93;;;;;;;;;;4987921;28;20449;-89
2023/06/09 11:35:04;;;;;;;7.70;4.30;;;;;;;;;;4982776;28;20555;-90
2023/06/09 11:44:29;;;;;;;14.03;8.03;;;26.90;99.90;;;;;;5439946;23;21886;-93
2023/06/09 11:49:50;;;;;;;6.13;4.97;;;;;;;;;;5004996;28;20562;-89
2023/06/09 11:52:30;;;;;;;5.77;5.27;;;;;;;;;;5005960;28;20443;-88
2023/06/09 11:55:04;;;;;;;5.40;4.90;;;;;;;;;;5004621;28;20465;-88
2023/06/09 11:57:46;;;;;;;6.40;4.60;;;;;;;;;;5004680;28;20448;-88
2023/06/09 12:00:21;;;;;;;7.43;4.90;;;;;;;;;;5013094;23;20549;-87
2023/06/09 12:02:49;;;;;;;5.90;4.97;;;27.20;99.90;;;;;;4999893;28;20424;-87
2023/06/09 12:05:42;;;;;;;8.20;4.60;;;;;;;;;;4999842;28;20441;-87
2023/06/09 12:08:20;;;;;;;6.50;5.60;;;;;;;;;;4999483;28;20419;-87
2023/06/09 12:11:10;;;;;;;7.60;4.90;;;27.10;1.00;;;;;;4991554;28;20473;-86
2023/06/09 12:14:23;;;;;;;5.37;4.87;;;27.20;99.90;;;;;;4994183;28;20520;-88
2023/06/09 12:16:55;;;;;;;4.63;4.30;;;;;;;;;;4993009;28;20420;-86
2023/06/09 12:19:25;;;;;;;5.40;4.90;;;;;;;;;;4995418;28;20449;-87
2023/06/09 12:22:07;;;;;;;5.87;5.37;;;;;;;;;;5000127;28;20469;-86
2023/06/09 12:24:35;;;;;;;6.60;5.90;;;;;;;;;;4999733;28;20455;-87
2023/06/09 12:27:13;;;;;;;6.33;5.47;;;;;;;;;;4999026;28;20449;-87
2023/06/09 12:29:43;;;;;;;7.03;5.27;;;;;;;;;;5001008;28;20451;-86
2023/06/09 12:32:33;;;;;;;6.17;5.60;;;27.30;99.90;;;;;;4999391;28;20450;-87
2023/06/09 12:35:04;;;;;;;7.50;5.20;;;;;;;;;;4996907;28;20429;-86
2023/06/09 12:37:40;;;;;;;6.67;6.17;;;27.50;99.90;;;;;;4998305;28;20480;-86
2023/06/09 12:46:00;;;;;;;5.90;5.40;;;;;;;;;;4982544;28;20480;-86
2023/06/09 12:48:33;;;;;;;5.50;5.00;;;27.60;99.90;;;;;;4984091;28;20532;-86
2023/06/09 12:51:01;;;;;;;5.90;5.40;;;;;;;;;;4985831;28;20437;-87
2023/06/09 12:53:28;;;;;;;5.80;5.20;;;;;;;;;;4984494;28;20834;-86
2023/06/09 12:56:03;;;;;;;5.57;5.07;;;27.60;99.90;;;;;;4992057;28;20513;-87
2023/06/09 12:58:32;;;;;;;7.43;5.70;;;;;;;;;;5000768;28;20531;-88
2023/06/09 13:01:07;;;;;;;6.37;5.40;;;;;;;;;;5000662;28;20468;-87
2023/06/09 13:04:14;;;;;;;5.77;5.27;;;27.70;99.90;;;;;;4991642;28;20487;-87
2023/06/09 13:06:50;;;;;;;5.30;4.83;;;;;;;;;;4983911;28;20448;-87
2023/06/09 13:09:17;;;;;;;6.57;5.60;;;;;;;;;;4986043;28;20824;-87
2023/06/09 13:11:48;;;;;;;6.33;5.70;;;;;;;;;;4986187;28;20426;-87
2023/06/09 13:14:19;;;;;;;6.07;5.47;;;;;;;;;;4994140;28;20418;-87
2023/06/09 13:16:47;;;;;;;7.10;5.30;;;;;;;;;;4995915;28;20449;-87
2023/06/09 13:19:30;;;;;;;7.17;5.60;;;;;;;;;;4996715;28;20466;-86
2023/06/09 13:22:08;;;;;;;5.77;5.17;;;;;;;;;;4995684;28;20557;-86
2023/06/09 13:24:51;;;;;;;5.97;5.43;;;;;;;;;;4988974;28;20489;-86
2023/06/09 13:30:03;;;;;;;6.33;5.83;;;;;;;;;;4991934;28;20504;-87
2023/06/09 13:32:53;;;;;;;5.90;5.40;;;;;;;;;;4986135;28;20441;-87
2023/06/09 13:35:33;;;;;;;6.87;5.47;;;;;;;;;;4986276;28;20434;-87
2023/06/09 13:38:15;;;;;;;6.50;5.20;;;;;;;;;;4985550;28;20434;-87
2023/06/09 13:41:30;;;;;;;6.60;5.70;;;27.90;99.90;;;;;;4983920;28;20556;-87
2023/06/09 13:44:05;;;;;;;5.70;5.20;;;;;;;;;;4984050;28;20460;-87
2023/06/09 13:49:40;;;;;;;6.40;5.73;;;;;;;;;;4924939;29;20573;-87
2023/06/09 13:52:16;;;;;;;7.73;6.57;;;;;;;;;;4984091;28;20449;-87
2023/06/09 13:57:59;;;;;;;5.70;5.20;;;;;;;;;;4985554;28;20461;-89
2023/06/09 14:00:35;;;;;;;7.40;6.77;;;;;;;;;;4985371;28;20576;-88
2023/06/09 14:03:09;;;;;;;6.00;4.60;;;;;;;;;;4987263;28;20425;-87
2023/06/09 14:05:39;;;;;;;7.10;5.13;;;;;;;;;;4983815;28;20461;-86
2023/06/09 14:08:06;;;;;;;7.80;6.30;;;;;;;;;;4984949;28;20410;-87
2023/06/09 14:10:36;;;;;;;5.37;4.97;;;;;;;;;;4985470;28;20999;-87
2023/06/09 14:13:06;;;;;;;6.33;5.73;;;;;;;;;;4985352;28;20461;-87
2023/06/09 14:15:33;;;;;;;6.17;5.57;;;;;;;;;;4992932;28;20454;-86
2023/06/09 14:18:00;;;;;;;5.97;5.47;;;27.90;1.00;;;;;;4999670;28;20441;-87
2023/06/09 14:20:28;;;;;;;6.03;5.63;;;27.80;1.00;;;;;;4999771;28;20461;-87
2023/06/09 14:22:58;;;;;;;6.23;5.07;;;28.30;99.90;;;;;;4998695;28;20441;-87
2023/06/09 14:25:26;;;;;;;6.10;5.60;;;28.20;99.90;;;;;;4997801;28;20449;-87
2023/06/09 14:27:55;;;;;;;5.57;5.07;;;28.20;99.90;;;;;;4997163;28;20453;-87
2023/06/09 14:30:24;;;;;;;7.43;4.90;;;28.20;99.90;;;;;;4996184;28;20475;-87
2023/06/09 14:32:52;;;;;;;10.20;5.13;;;28.20;99.90;;;;;;4998189;28;20464;-87
2023/06/09 14:35:22;;;;;;;5.20;4.70;;;28.10;1.00;;;;;;4998152;28;20504;-87
2023/06/09 14:37:50;;;;;;;8.23;5.30;;;28.50;1.00;;;;;;4995057;28;20503;-87
2023/06/09 14:40:17;;;;;;;6.83;5.33;;;28.20;99.90;;;;;;4989214;28;20457;-87